createdAt,value
2023-01-20T06:19:03.659Z,5.70
2023-01-20T06:21:31.085Z,5.90
2023-01-20T06:23:59.322Z,5.80
2023-01-20T06:26:26.498Z,5.30
2023-01-20T06:28:58.051Z,5.50
2023-01-20T06:31:24.855Z,4.90
2023-01-20T06:33:51.878Z,5.80
2023-01-20T06:36:20.719Z,6.20
2023-01-20T06:38:52.799Z,5.90
2023-01-20T06:41:22.647Z,5.80
2023-01-20T06:43:53.014Z,5.90
2023-01-20T06:46:22.391Z,6.00
2023-01-20T06:48:52.492Z,6.40
2023-01-20T06:51:22.091Z,7.20
2023-01-20T06:53:56.488Z,7.10
2023-01-20T06:56:25.359Z,5.60
2023-01-20T06:58:53.372Z,6.20
2023-01-20T07:01:25.340Z,5.80
2023-01-20T07:03:52.507Z,5.70
2023-01-20T07:06:39.475Z,5.90
2023-01-20T07:09:26.793Z,6.20
2023-01-20T07:12:31.036Z,5.90
2023-01-20T07:15:06.410Z,5.70
2023-01-20T07:17:36.982Z,6.20
2023-01-20T07:20:10.138Z,6.60
2023-01-20T07:22:39.758Z,6.60
2023-01-20T07:25:14.168Z,6.20
2023-01-20T07:27:43.189Z,5.60
2023-01-20T07:30:12.941Z,9.00
2023-01-20T07:32:49.280Z,6.00
2023-01-20T07:35:23.040Z,5.70
2023-01-20T07:37:55.381Z,5.00
2023-01-20T07:40:26.026Z,5.50
2023-01-20T07:43:04.121Z,6.40
2023-01-20T07:45:35.292Z,6.10
2023-01-20T07:48:05.040Z,5.90
2023-01-20T07:50:37.090Z,6.10
2023-01-20T07:53:05.926Z,6.00
2023-01-20T07:55:34.343Z,6.90
2023-01-20T07:58:09.661Z,6.10
2023-01-20T08:00:37.915Z,6.00
2023-01-20T08:03:21.722Z,6.70
2023-01-20T08:05:52.720Z,6.10
2023-01-20T08:08:26.593Z,5.50
2023-01-20T08:10:58.366Z,5.00
2023-01-20T08:13:32.840Z,5.50
2023-01-20T08:16:08.713Z,6.30
2023-01-20T08:18:41.609Z,6.10
2023-01-20T08:21:34.900Z,5.90
2023-01-20T08:24:12.287Z,5.60
2023-01-20T08:26:57.793Z,5.40
2023-01-20T08:29:27.099Z,5.90
2023-01-20T08:31:54.230Z,6.40
2023-01-20T08:34:34.741Z,6.40
2023-01-20T08:37:09.530Z,6.40
2023-01-20T08:39:43.221Z,5.30
2023-01-20T08:42:12.673Z,7.40
2023-01-20T08:44:44.680Z,6.10
2023-01-20T08:47:12.350Z,6.10
2023-01-20T08:49:43.823Z,6.50
2023-01-20T08:52:18.893Z,6.50
2023-01-20T08:55:14.282Z,6.60
2023-01-20T08:57:41.858Z,6.30
2023-01-20T09:00:11.045Z,6.20
2023-01-20T09:02:40.567Z,6.40
2023-01-20T09:05:09.551Z,6.70
2023-01-20T09:07:36.857Z,6.50
2023-01-20T09:10:04.290Z,6.70
2023-01-20T09:12:39.229Z,6.80
2023-01-20T09:15:08.408Z,5.50
2023-01-20T09:17:36.636Z,6.20
2023-01-20T09:20:05.724Z,7.00
2023-01-20T09:22:33.469Z,6.20
2023-01-20T09:25:01.650Z,6.70
2023-01-20T09:27:29.425Z,8.00
2023-01-20T09:29:56.485Z,6.50
2023-01-20T09:32:24.909Z,7.60
2023-01-20T09:34:56.946Z,7.50
2023-01-20T09:37:42.768Z,7.00
2023-01-20T09:40:44.169Z,6.80
2023-01-20T09:46:31.809Z,7.00
2023-01-20T09:49:35.576Z,7.40
2023-01-20T09:52:47.496Z,7.80
2023-01-20T09:55:37.222Z,7.60
2023-01-20T09:58:14.823Z,7.10
2023-01-20T10:00:55.823Z,7.50
2023-01-20T10:03:59.620Z,7.40
2023-01-20T10:06:32.839Z,7.10
2023-01-20T10:11:42.237Z,7.60
2023-01-20T10:14:26.678Z,6.60
2023-01-20T10:17:26.424Z,7.00
2023-01-20T10:20:15.560Z,6.60
2023-01-20T10:22:52.301Z,6.80
2023-01-20T10:25:22.222Z,6.60
2023-01-20T10:28:00.384Z,6.50
2023-01-20T10:30:32.152Z,6.60
2023-01-20T10:33:12.111Z,6.10
2023-01-20T10:35:44.017Z,6.60
2023-01-20T10:38:34.307Z,7.20
2023-01-20T10:41:18.084Z,7.50
2023-01-20T10:43:47.251Z,7.00
2023-01-20T10:46:24.168Z,6.80
2023-01-20T10:49:12.607Z,6.50
2023-01-20T10:52:15.464Z,6.80
2023-01-20T10:57:37.775Z,6.50
2023-01-20T11:00:11.424Z,6.90
2023-01-20T11:02:39.587Z,7.30
2023-01-20T11:05:17.428Z,6.40
2023-01-20T11:07:46.013Z,6.80
2023-01-20T11:10:22.808Z,7.10
2023-01-20T11:13:00.060Z,6.70
2023-01-20T11:15:35.731Z,6.40
2023-01-20T11:18:22.333Z,6.80
2023-01-20T11:21:11.629Z,6.60
2023-01-20T11:23:58.625Z,7.10
2023-01-20T11:26:34.073Z,7.40
2023-01-20T11:29:16.742Z,7.10
2023-01-20T11:31:56.671Z,7.60
2023-01-20T11:34:35.581Z,7.50
2023-01-20T11:37:06.081Z,7.40
2023-01-20T11:39:49.650Z,7.50
2023-01-20T11:42:24.560Z,6.80
2023-01-20T11:44:53.065Z,7.30
2023-01-20T11:47:26.316Z,7.30
2023-01-20T11:50:11.441Z,7.10
2023-01-20T11:52:48.442Z,7.20
2023-01-20T11:55:19.029Z,6.70
2023-01-20T11:57:56.707Z,7.00
2023-01-20T12:00:25.048Z,6.80
2023-01-20T12:03:01.553Z,6.70
2023-01-20T12:05:54.873Z,7.30
2023-01-20T12:08:31.703Z,6.60
2023-01-20T12:11:02.137Z,7.40
2023-01-20T12:13:55.688Z,8.00
2023-01-20T12:16:23.872Z,6.80
2023-01-20T12:19:02.073Z,7.40
2023-01-20T12:21:35.223Z,7.30
2023-01-20T12:24:58.701Z,7.20
2023-01-20T12:30:00.242Z,7.20
2023-01-20T12:32:33.500Z,6.60
2023-01-20T12:35:02.773Z,8.50
2023-01-20T12:37:43.257Z,7.10
2023-01-20T12:40:27.264Z,7.30
2023-01-20T12:43:30.954Z,7.50
2023-01-20T12:46:26.977Z,7.40
2023-01-20T12:49:32.345Z,7.90
2023-01-20T12:52:09.798Z,8.10
2023-01-20T12:54:48.494Z,7.30
2023-01-20T12:57:47.130Z,8.00
2023-01-20T13:00:28.499Z,8.20
2023-01-20T13:03:36.012Z,7.70
2023-01-20T13:06:21.906Z,7.90
2023-01-20T13:09:01.798Z,8.90
2023-01-20T13:12:21.056Z,8.60
2023-01-20T13:14:57.407Z,8.00
2023-01-20T13:17:30.074Z,8.70
2023-01-20T13:19:57.849Z,7.70
2023-01-20T13:22:28.499Z,9.50
2023-01-20T14:40:59.842Z,5.80
2023-01-20T14:43:30.742Z,6.00
2023-01-20T14:45:58.632Z,6.60
2023-01-20T14:48:34.537Z,7.40
2023-01-20T14:51:04.671Z,7.70
2023-01-20T14:53:31.575Z,8.00
2023-01-20T14:56:01.397Z,8.60
2023-01-20T14:58:32.104Z,9.00
2023-01-20T15:01:01.117Z,10.00
2023-01-20T15:03:29.415Z,9.60
2023-01-20T15:06:12.363Z,10.50
2023-01-20T15:08:40.391Z,11.20
2023-01-20T15:11:12.772Z,13.00
2023-01-20T15:13:41.013Z,12.90
2023-01-20T15:16:16.789Z,14.30
2023-01-20T15:18:43.767Z,13.80
2023-01-20T15:21:23.089Z,13.40
2023-01-20T15:23:52.795Z,12.80
2023-01-20T15:26:25.829Z,11.80
2023-01-20T15:28:52.981Z,11.90
2023-01-20T15:31:20.377Z,10.40
2023-01-20T15:33:47.891Z,12.10
2023-01-20T15:36:27.994Z,11.20
2023-01-20T15:38:55.127Z,12.50
2023-01-20T15:41:25.247Z,11.20
2023-01-20T15:43:52.696Z,12.80
2023-01-20T15:46:21.646Z,11.60
2023-01-20T15:48:56.258Z,11.60
2023-01-20T15:51:24.435Z,12.50
2023-01-20T15:53:51.309Z,10.70
2023-01-20T15:56:28.166Z,11.00
2023-01-20T15:58:55.143Z,10.80
2023-01-20T16:01:25.467Z,8.90
2023-01-20T16:03:53.159Z,9.40
2023-01-20T16:06:20.282Z,10.10
2023-01-20T16:08:48.453Z,10.80
2023-01-20T16:11:16.088Z,9.80
2023-01-20T16:13:43.054Z,10.20
2023-01-20T16:16:18.494Z,9.50
2023-01-20T16:18:45.376Z,10.30
2023-01-20T16:21:17.029Z,10.50
2023-01-20T16:23:44.024Z,10.50
2023-01-20T16:26:27.985Z,9.90
2023-01-20T16:28:56.245Z,9.80
2023-01-20T16:31:23.844Z,10.60
2023-01-20T16:33:52.118Z,12.80
2023-01-20T16:36:20.002Z,10.20
2023-01-20T16:38:48.612Z,11.00
2023-01-20T16:41:26.226Z,11.40
2023-01-20T16:43:53.852Z,10.90
2023-01-20T16:46:22.832Z,12.30
2023-01-20T16:48:49.924Z,11.80
2023-01-20T16:51:18.886Z,11.00
2023-01-20T16:53:45.856Z,11.00
2023-01-20T16:56:20.039Z,11.20
2023-01-20T16:58:51.770Z,11.60
2023-01-20T17:01:24.041Z,11.70
2023-01-20T17:03:52.136Z,10.60
2023-01-20T17:06:21.090Z,12.10
2023-01-20T17:08:49.801Z,12.10
2023-01-20T17:11:22.699Z,11.90
2023-01-20T17:13:50.800Z,11.90
2023-01-20T17:17:09.089Z,12.00
2023-01-20T17:19:38.815Z,11.30
2023-01-20T17:22:05.819Z,11.10
2023-01-20T17:24:33.228Z,11.80
2023-01-20T17:27:00.037Z,11.40
2023-01-20T17:29:27.542Z,11.50
2023-01-20T17:32:00.748Z,10.70
2023-01-20T17:34:27.682Z,12.20
2023-01-20T17:36:54.493Z,10.80
2023-01-20T17:39:21.409Z,10.10
2023-01-20T17:41:48.787Z,10.70
2023-01-20T17:44:15.786Z,11.50
2023-01-20T17:46:42.671Z,11.40
2023-01-20T17:55:35.840Z,11.10
2023-01-20T17:58:02.937Z,10.80
2023-01-20T18:00:29.788Z,10.90
2023-01-20T18:02:57.481Z,10.60
2023-01-20T18:05:24.514Z,12.00
2023-01-20T18:07:51.457Z,10.00
2023-01-20T18:11:35.956Z,10.80
